createdAt,value
2022-09-18T00:01:26.553Z,8.90
2022-09-18T00:03:58.775Z,8.90
2022-09-18T00:06:28.392Z,8.90
2022-09-18T00:08:58.541Z,8.80
2022-09-18T00:11:30.134Z,8.80
2022-09-18T00:13:57.591Z,8.80
2022-09-18T00:16:26.643Z,8.70
2022-09-18T00:18:54.479Z,8.70
2022-09-18T00:21:25.183Z,8.60
2022-09-18T00:23:54.947Z,8.60
2022-09-18T00:26:22.626Z,8.70
2022-09-18T00:28:50.126Z,8.60
2022-09-18T00:31:20.613Z,8.60
2022-09-18T00:33:48.770Z,8.60
2022-09-18T00:36:18.449Z,8.60
2022-09-18T00:38:46.886Z,8.60
2022-09-18T00:41:19.220Z,8.50
2022-09-18T00:43:46.543Z,8.50
2022-09-18T00:46:26.588Z,8.50
2022-09-18T00:48:59.996Z,8.50
2022-09-18T00:51:27.800Z,8.40
2022-09-18T00:54:26.124Z,8.40
2022-09-18T00:56:57.674Z,8.50
2022-09-18T00:59:31.852Z,8.40
2022-09-18T01:02:00.947Z,8.40
2022-09-18T01:04:29.588Z,8.40
2022-09-18T01:07:09.255Z,8.40
2022-09-18T01:10:15.555Z,8.40
2022-09-18T01:13:22.216Z,8.50
2022-09-18T01:16:09.502Z,8.50
2022-09-18T01:18:55.240Z,8.50
2022-09-18T01:21:38.967Z,8.40
2022-09-18T01:24:21.484Z,8.40
2022-09-18T01:26:52.696Z,8.40
2022-09-18T01:29:34.665Z,8.50
2022-09-18T01:32:33.860Z,8.50
2022-09-18T01:35:29.888Z,8.40
2022-09-18T01:38:06.623Z,8.40
2022-09-18T01:40:49.093Z,8.50
2022-09-18T01:43:19.564Z,8.40
2022-09-18T01:45:55.014Z,8.40
2022-09-18T01:48:53.358Z,8.40
2022-09-18T01:51:28.826Z,8.40
2022-09-18T01:54:13.043Z,8.40
2022-09-18T01:56:53.187Z,8.40
2022-09-18T01:59:27.150Z,8.40
2022-09-18T02:01:58.090Z,8.30
2022-09-18T02:04:31.231Z,8.30
2022-09-18T02:07:15.175Z,8.30
2022-09-18T02:09:43.910Z,8.30
2022-09-18T02:12:15.778Z,8.30
2022-09-18T02:14:47.854Z,8.30
2022-09-18T02:17:29.766Z,8.40
2022-09-18T02:20:08.560Z,8.40
2022-09-18T02:22:36.658Z,8.50
2022-09-18T02:25:06.980Z,8.50
2022-09-18T02:27:37.475Z,8.50
2022-09-18T02:30:07.229Z,8.60
2022-09-18T02:32:37.867Z,8.60
2022-09-18T02:35:07.418Z,8.60
2022-09-18T02:37:58.022Z,8.60
2022-09-18T02:40:46.618Z,8.60
2022-09-18T02:43:29.220Z,8.60
2022-09-18T02:46:02.416Z,8.60
2022-09-18T02:49:20.344Z,8.80
2022-09-18T02:51:56.852Z,8.80
2022-09-18T02:54:47.137Z,8.80
2022-09-18T02:57:35.001Z,8.90
2022-09-18T03:00:03.158Z,8.80
2022-09-18T03:02:30.757Z,8.80
2022-09-18T03:04:58.101Z,8.80
2022-09-18T03:07:26.060Z,8.80
2022-09-18T03:09:53.428Z,9.00
2022-09-18T03:12:20.676Z,8.90
2022-09-18T03:14:48.052Z,8.90
2022-09-18T03:17:15.318Z,8.90
2022-09-18T03:19:44.892Z,9.00
2022-09-18T03:22:12.868Z,9.00
2022-09-18T03:24:40.282Z,9.00
2022-09-18T03:27:07.694Z,9.00
2022-09-18T03:29:34.999Z,9.00
2022-09-18T03:32:02.502Z,9.00
2022-09-18T03:34:29.789Z,9.00
2022-09-18T03:36:57.425Z,9.00
2022-09-18T03:39:24.685Z,9.00
2022-09-18T03:41:51.972Z,9.00
2022-09-18T03:44:19.527Z,9.00
2022-09-18T03:46:47.072Z,9.00
2022-09-18T03:49:14.484Z,9.10
2022-09-18T03:51:42.348Z,9.10
2022-09-18T03:54:09.607Z,9.10
2022-09-18T03:56:39.176Z,9.10
2022-09-18T03:59:06.543Z,9.20
2022-09-18T04:01:33.971Z,9.20
2022-09-18T04:04:01.765Z,9.20
2022-09-18T04:06:29.054Z,9.20
2022-09-18T04:08:56.313Z,9.20
2022-09-18T04:11:23.686Z,9.20
2022-09-18T04:13:50.925Z,9.20
2022-09-18T04:16:18.360Z,9.20
2022-09-18T04:18:45.684Z,9.20
2022-09-18T04:21:13.006Z,9.20
2022-09-18T04:23:40.453Z,9.20
2022-09-18T04:26:10.557Z,9.20
2022-09-18T04:28:38.346Z,9.20
2022-09-18T04:31:05.986Z,9.20
2022-09-18T04:33:33.272Z,9.30
2022-09-18T04:36:00.946Z,9.30
2022-09-18T04:38:28.235Z,9.40
2022-09-18T04:40:57.937Z,9.40
2022-09-18T04:43:26.464Z,9.40
2022-09-18T04:45:54.663Z,9.40
2022-09-18T04:48:22.379Z,9.40
2022-09-18T04:50:50.478Z,9.40
2022-09-18T04:53:18.349Z,9.40
2022-09-18T04:55:47.103Z,9.50
2022-09-18T04:58:17.209Z,9.50
2022-09-18T05:00:44.524Z,9.60
2022-09-18T05:03:12.271Z,9.60
2022-09-18T05:05:39.585Z,9.60
2022-09-18T05:08:06.810Z,9.60
2022-09-18T05:10:34.547Z,9.70
2022-09-18T05:13:01.909Z,9.70
2022-09-18T05:15:29.149Z,9.60
2022-09-18T05:18:01.235Z,9.70
2022-09-18T05:20:29.160Z,9.70
2022-09-18T05:22:56.943Z,9.70
2022-09-18T05:25:29.621Z,9.70
2022-09-18T05:28:01.933Z,9.70
2022-09-18T05:30:31.433Z,9.70
2022-09-18T05:33:05.963Z,9.70
2022-09-18T05:35:35.733Z,9.70
2022-09-18T05:38:04.527Z,9.60
2022-09-18T05:40:38.597Z,9.60
2022-09-18T05:43:08.075Z,9.70
2022-09-18T05:45:35.914Z,9.70
2022-09-18T05:48:08.965Z,9.70
2022-09-18T05:50:40.633Z,9.70
2022-09-18T05:53:14.124Z,9.80
2022-09-18T05:55:42.586Z,9.80
2022-09-18T05:58:15.285Z,9.80
2022-09-18T06:00:45.023Z,9.90
2022-09-18T06:03:14.647Z,9.90
2022-09-18T06:05:52.470Z,9.90
2022-09-18T06:08:20.728Z,9.90
2022-09-18T06:10:48.222Z,10.00
2022-09-18T06:13:17.968Z,10.00
2022-09-18T06:15:47.549Z,10.00
2022-09-18T06:18:15.755Z,10.00
2022-09-18T06:20:44.742Z,10.10
2022-09-18T06:23:12.022Z,10.20
2022-09-18T06:25:39.614Z,10.20
2022-09-18T06:28:07.101Z,10.30
2022-09-18T06:30:36.224Z,10.30
2022-09-18T06:33:08.197Z,10.30
2022-09-18T06:35:38.509Z,10.20
2022-09-18T06:38:07.361Z,10.30
2022-09-18T06:40:36.151Z,10.20
2022-09-18T06:43:04.119Z,10.20
2022-09-18T06:45:32.208Z,10.20
2022-09-18T06:48:03.776Z,10.30
2022-09-18T06:50:31.719Z,10.30
2022-09-18T06:53:06.759Z,10.40
2022-09-18T06:55:36.247Z,10.40
2022-09-18T06:58:06.999Z,10.50
2022-09-18T07:00:40.780Z,10.50
2022-09-18T07:03:09.375Z,10.50
2022-09-18T07:05:41.870Z,10.60
2022-09-18T07:08:10.821Z,10.70
2022-09-18T07:10:39.924Z,10.90
2022-09-18T07:13:07.600Z,10.90
2022-09-18T07:15:35.629Z,11.00
2022-09-18T07:18:05.477Z,11.10
2022-09-18T07:20:32.866Z,11.10
2022-09-18T07:23:02.610Z,11.20
2022-09-18T07:25:31.758Z,11.30
2022-09-18T07:28:11.352Z,11.50
2022-09-18T07:30:39.784Z,11.70
2022-09-18T07:33:08.886Z,11.70
2022-09-18T07:35:36.858Z,11.70
2022-09-18T07:38:06.420Z,11.60
2022-09-18T07:40:34.820Z,11.50
2022-09-18T07:43:04.718Z,11.30
2022-09-18T07:45:32.507Z,11.30
2022-09-18T07:48:04.466Z,11.20
2022-09-18T07:50:32.872Z,11.20
2022-09-18T07:53:02.829Z,11.20
2022-09-18T07:55:30.336Z,11.30
2022-09-18T07:58:00.493Z,11.30
2022-09-18T08:00:30.030Z,11.30
2022-09-18T08:03:05.620Z,11.30
2022-09-18T08:05:33.529Z,11.30
2022-09-18T08:08:09.320Z,11.40
2022-09-18T08:10:37.470Z,11.30
2022-09-18T08:13:05.199Z,11.30
2022-09-18T08:15:34.384Z,11.40
2022-09-18T08:18:02.021Z,11.50
2022-09-18T08:20:33.596Z,11.50
2022-09-18T08:23:04.051Z,11.50
2022-09-18T08:25:31.749Z,11.40
2022-09-18T08:28:03.781Z,11.40
2022-09-18T08:30:31.876Z,11.30
2022-09-18T08:33:02.739Z,11.30
2022-09-18T08:35:32.214Z,11.40
2022-09-18T08:38:00.424Z,11.50
2022-09-18T08:40:39.634Z,11.70
2022-09-18T08:43:33.798Z,12.00
2022-09-18T08:46:08.299Z,12.00
2022-09-18T08:48:42.642Z,11.90
2022-09-18T08:51:31.529Z,11.90
2022-09-18T08:54:17.619Z,11.90
2022-09-18T08:56:47.353Z,11.80
2022-09-18T08:59:32.970Z,11.70
2022-09-18T09:02:25.432Z,11.80
2022-09-18T09:04:58.983Z,11.80
2022-09-18T09:07:46.498Z,12.00
2022-09-18T09:10:29.228Z,12.00
2022-09-18T09:13:37.895Z,12.20
2022-09-18T09:16:17.664Z,12.50
2022-09-18T09:18:58.842Z,12.50
2022-09-18T09:21:52.782Z,12.50
2022-09-18T09:24:37.224Z,12.70
2022-09-18T09:27:28.169Z,12.90
2022-09-18T09:30:18.160Z,13.20
2022-09-18T09:33:09.168Z,14.00
2022-09-18T09:35:46.641Z,14.30
2022-09-18T09:38:32.577Z,14.40
2022-09-18T09:41:08.059Z,14.20
2022-09-18T09:44:13.986Z,13.90
2022-09-18T09:46:51.929Z,13.30
2022-09-18T09:49:32.962Z,12.70
2022-09-18T09:52:09.428Z,11.90
2022-09-18T09:54:37.823Z,11.50
2022-09-18T09:57:26.867Z,11.30
2022-09-18T10:00:19.157Z,11.20
2022-09-18T10:03:26.384Z,11.00
2022-09-18T10:06:06.614Z,11.10
2022-09-18T10:08:38.602Z,11.20
2022-09-18T10:11:11.683Z,11.30
2022-09-18T10:13:54.492Z,11.40
2022-09-18T10:16:37.821Z,11.40
2022-09-18T10:19:05.836Z,11.30
2022-09-18T10:21:35.814Z,11.30
2022-09-18T10:24:15.551Z,11.30
2022-09-18T10:26:56.050Z,11.30
2022-09-18T10:29:23.625Z,11.20
2022-09-18T10:32:05.061Z,11.20
2022-09-18T10:34:50.090Z,11.10
2022-09-18T10:37:28.887Z,11.10
2022-09-18T10:39:58.451Z,11.00
2022-09-18T10:42:31.378Z,10.90
2022-09-18T10:45:05.310Z,10.90
2022-09-18T10:47:37.620Z,11.00
2022-09-18T10:50:14.684Z,11.00
2022-09-18T10:52:43.501Z,11.00
2022-09-18T10:55:15.359Z,11.00
2022-09-18T10:57:48.119Z,11.00
2022-09-18T11:00:21.709Z,11.00
2022-09-18T11:02:54.184Z,11.00
2022-09-18T11:05:24.505Z,11.00
2022-09-18T11:07:55.150Z,11.00
2022-09-18T11:10:25.456Z,11.00
2022-09-18T11:12:59.344Z,11.00
2022-09-18T11:15:30.581Z,11.00
2022-09-18T11:18:00.650Z,11.00
2022-09-18T11:20:29.480Z,11.10
2022-09-18T11:23:15.038Z,11.20
2022-09-18T11:25:43.253Z,11.20
2022-09-18T11:28:27.691Z,11.30
2022-09-18T11:31:21.890Z,11.40
2022-09-18T11:33:55.783Z,11.40
2022-09-18T11:36:27.084Z,11.40
2022-09-18T11:38:55.877Z,11.30
2022-09-18T11:41:50.857Z,11.20
2022-09-18T11:44:33.567Z,11.10
2022-09-18T11:47:27.310Z,11.10
2022-09-18T11:50:16.686Z,11.00
2022-09-18T11:52:54.999Z,11.00
2022-09-18T11:56:00.452Z,11.10
2022-09-18T11:59:15.352Z,11.20
2022-09-18T12:01:49.099Z,11.20
2022-09-18T12:04:42.223Z,11.30
2022-09-18T12:07:39.722Z,11.30
2022-09-18T12:10:38.796Z,11.30
2022-09-18T12:13:23.182Z,11.40
2022-09-18T12:16:00.239Z,11.40
2022-09-18T12:18:34.015Z,11.50
2022-09-18T12:21:13.108Z,11.40
2022-09-18T12:23:42.317Z,11.50
2022-09-18T12:26:38.851Z,11.60
2022-09-18T12:29:32.211Z,11.70
2022-09-18T12:32:32.943Z,11.70
2022-09-18T12:35:32.581Z,11.80
2022-09-18T12:38:33.982Z,11.80
2022-09-18T12:41:20.288Z,11.80
2022-09-18T12:43:56.720Z,11.80
2022-09-18T12:46:37.731Z,11.80
2022-09-18T12:49:24.372Z,11.80
2022-09-18T12:52:02.100Z,11.80
2022-09-18T12:54:57.412Z,11.90
2022-09-18T12:57:42.643Z,11.90
2022-09-18T13:00:17.326Z,11.90
2022-09-18T13:02:54.494Z,11.90
2022-09-18T13:05:31.459Z,12.00
2022-09-18T13:08:05.443Z,12.00
2022-09-18T13:10:44.591Z,12.00
2022-09-18T13:13:18.109Z,12.00
2022-09-18T13:16:01.988Z,12.00
2022-09-18T13:18:38.323Z,12.10
2022-09-18T13:21:17.977Z,12.40
2022-09-18T13:23:47.858Z,12.60
2022-09-18T13:26:17.128Z,13.00
2022-09-18T13:28:45.102Z,13.30
2022-09-18T13:31:15.856Z,13.50
2022-09-18T13:33:54.928Z,13.60
2022-09-18T13:36:35.316Z,13.70
2022-09-18T13:39:17.285Z,13.60
2022-09-18T13:41:47.906Z,13.40
2022-09-18T13:44:30.108Z,13.10
2022-09-18T13:47:16.463Z,12.90
2022-09-18T13:49:49.373Z,12.70
2022-09-18T13:52:35.275Z,12.50
2022-09-18T13:55:16.615Z,12.50
2022-09-18T13:57:45.101Z,12.60
2022-09-18T14:00:22.215Z,12.90
2022-09-18T14:03:08.092Z,13.40
2022-09-18T14:05:40.461Z,13.50
2022-09-18T14:08:33.405Z,13.60
2022-09-18T14:11:14.962Z,13.70
2022-09-18T14:13:55.633Z,13.80
2022-09-18T14:16:24.188Z,14.00
2022-09-18T14:18:59.094Z,13.80
2022-09-18T14:21:32.349Z,13.60
2022-09-18T14:24:36.338Z,13.50
2022-09-18T14:27:28.615Z,13.40
2022-09-18T14:30:03.336Z,13.10
2022-09-18T14:32:33.725Z,12.90
2022-09-18T14:35:38.790Z,13.10
2022-09-18T14:38:35.018Z,13.30
2022-09-18T14:41:21.591Z,13.40
2022-09-18T14:43:57.752Z,13.40
2022-09-18T14:46:26.183Z,13.30
2022-09-18T14:48:55.066Z,13.20
2022-09-18T14:51:49.326Z,13.30
2022-09-18T14:54:25.754Z,13.30
2022-09-18T14:56:57.422Z,13.30
2022-09-18T14:59:26.222Z,13.30
2022-09-18T15:01:55.097Z,13.40
2022-09-18T15:04:26.680Z,13.50
2022-09-18T15:06:56.430Z,13.70
2022-09-18T15:09:33.154Z,13.90
2022-09-18T15:12:03.131Z,14.20
2022-09-18T15:14:44.059Z,14.30
2022-09-18T15:17:29.567Z,14.40
2022-09-18T15:19:57.017Z,14.30
2022-09-18T15:22:25.305Z,14.20
2022-09-18T15:24:52.843Z,14.00
2022-09-18T15:27:22.636Z,13.90
2022-09-18T15:30:09.913Z,13.70
2022-09-18T15:32:43.816Z,13.50
2022-09-18T15:35:21.228Z,13.40
2022-09-18T15:38:02.833Z,13.30
2022-09-18T15:40:37.957Z,13.20
2022-09-18T15:43:33.122Z,13.10
2022-09-18T15:46:13.485Z,13.10
2022-09-18T15:48:44.238Z,13.00
2022-09-18T15:51:27.538Z,13.00
2022-09-18T15:54:05.732Z,12.90
2022-09-18T15:56:34.787Z,12.90
2022-09-18T15:59:08.149Z,12.70
2022-09-18T16:01:40.106Z,12.60
2022-09-18T16:04:15.382Z,12.50
2022-09-18T16:06:53.570Z,12.40
2022-09-18T16:09:33.559Z,12.40
2022-09-18T16:12:01.866Z,12.30
2022-09-18T16:14:59.741Z,12.30
2022-09-18T16:17:32.821Z,12.30
2022-09-18T16:20:23.646Z,12.40
2022-09-18T16:22:53.369Z,12.40
2022-09-18T16:25:25.638Z,12.40
2022-09-18T16:27:56.834Z,12.30
2022-09-18T16:30:28.697Z,12.10
2022-09-18T16:33:23.939Z,12.10
2022-09-18T16:36:10.981Z,12.00
2022-09-18T16:38:38.477Z,11.90
2022-09-18T16:41:06.018Z,11.80
2022-09-18T16:43:33.386Z,11.70
2022-09-18T16:46:00.746Z,11.60
2022-09-18T16:48:29.708Z,11.60
2022-09-18T16:50:57.116Z,11.60
2022-09-18T16:53:24.572Z,11.50
2022-09-18T16:55:56.512Z,11.40
2022-09-18T16:58:25.915Z,11.30
2022-09-18T17:00:53.562Z,11.20
2022-09-18T17:03:21.286Z,11.10
2022-09-18T17:05:48.626Z,11.20
2022-09-18T17:08:16.146Z,11.10
2022-09-18T17:10:45.333Z,11.10
2022-09-18T17:13:13.279Z,10.90
2022-09-18T17:15:40.681Z,10.80
2022-09-18T17:18:08.455Z,10.80
2022-09-18T17:20:36.218Z,10.70
2022-09-18T17:23:03.579Z,10.70
2022-09-18T17:25:30.929Z,10.70
2022-09-18T17:27:58.648Z,10.70
2022-09-18T17:30:26.148Z,10.70
2022-09-18T17:32:53.446Z,10.70
2022-09-18T17:35:24.222Z,10.70
2022-09-18T17:37:52.424Z,10.70
2022-09-18T17:40:22.918Z,10.70
2022-09-18T17:42:50.251Z,10.70
2022-09-18T17:45:17.633Z,10.60
2022-09-18T17:47:45.124Z,10.50
2022-09-18T17:50:12.651Z,10.50
2022-09-18T17:52:40.228Z,10.40
2022-09-18T17:55:08.383Z,10.40
2022-09-18T17:57:36.810Z,10.40
2022-09-18T18:00:05.350Z,10.40
2022-09-18T18:02:32.947Z,10.40
2022-09-18T18:05:00.410Z,10.50
2022-09-18T18:07:27.799Z,10.50
2022-09-18T18:09:58.000Z,10.50
2022-09-18T18:12:25.387Z,10.40
2022-09-18T18:14:52.692Z,10.40
2022-09-18T18:17:20.515Z,10.50
2022-09-18T18:19:50.310Z,10.50
2022-09-18T18:22:18.312Z,10.40
2022-09-18T18:24:45.647Z,10.40
2022-09-18T18:27:12.971Z,10.40
2022-09-18T18:29:42.976Z,10.40
2022-09-18T18:32:11.274Z,10.40
2022-09-18T18:34:39.220Z,10.40
2022-09-18T18:37:06.791Z,10.40
2022-09-18T18:39:34.377Z,10.50
2022-09-18T18:42:01.714Z,10.50
2022-09-18T18:44:29.079Z,10.50
2022-09-18T18:46:56.975Z,10.40
2022-09-18T18:49:24.377Z,10.40
2022-09-18T18:51:52.155Z,10.40
2022-09-18T18:54:21.772Z,10.30
2022-09-18T18:56:49.924Z,10.30
2022-09-18T18:59:19.291Z,10.20
2022-09-18T19:01:47.892Z,10.20
2022-09-18T19:04:19.334Z,10.10
2022-09-18T19:06:47.181Z,10.10
2022-09-18T19:09:20.915Z,10.00
2022-09-18T19:11:49.938Z,10.00
2022-09-18T19:14:20.280Z,10.00
2022-09-18T19:16:48.968Z,10.00
2022-09-18T19:19:18.701Z,10.10
2022-09-18T19:21:46.723Z,10.10
2022-09-18T19:24:14.904Z,10.10
2022-09-18T19:26:43.146Z,10.10
2022-09-18T19:29:13.952Z,10.10
2022-09-18T19:31:43.215Z,10.10
2022-09-18T19:34:13.572Z,10.10
2022-09-18T19:36:41.608Z,10.10
2022-09-18T19:39:12.004Z,10.00
2022-09-18T19:41:50.440Z,9.90
2022-09-18T19:44:29.923Z,9.90
2022-09-18T19:47:01.976Z,9.90
2022-09-18T19:49:33.917Z,9.90
2022-09-18T19:52:02.402Z,9.90
2022-09-18T19:54:31.458Z,9.90
2022-09-18T19:56:59.462Z,10.00
2022-09-18T19:59:26.762Z,10.10
2022-09-18T20:01:55.217Z,10.10
2022-09-18T20:04:22.623Z,10.10
2022-09-18T20:06:50.032Z,10.10
2022-09-18T20:09:17.649Z,10.10
2022-09-18T20:11:48.155Z,10.10
2022-09-18T20:14:16.718Z,10.10
2022-09-18T20:16:44.048Z,10.10
2022-09-18T20:19:11.351Z,10.10
2022-09-18T20:21:38.832Z,10.10
2022-09-18T20:24:06.526Z,10.10
2022-09-18T20:26:33.844Z,10.10
2022-09-18T20:29:03.790Z,10.10
2022-09-18T20:31:31.225Z,10.00
2022-09-18T20:34:00.028Z,10.00
2022-09-18T20:36:27.745Z,10.00
2022-09-18T20:38:58.202Z,9.90
2022-09-18T20:41:30.038Z,9.90
2022-09-18T20:44:01.470Z,9.90
2022-09-18T20:46:29.101Z,9.90
2022-09-18T20:48:56.395Z,9.80
2022-09-18T20:51:26.978Z,9.80
2022-09-18T20:53:57.459Z,9.80
2022-09-18T20:56:27.203Z,9.70
2022-09-18T20:58:54.867Z,9.70
2022-09-18T21:01:25.405Z,9.70
2022-09-18T21:04:00.910Z,9.70
2022-09-18T21:06:33.629Z,9.70
2022-09-18T21:09:08.578Z,9.70
2022-09-18T21:11:40.911Z,9.60
2022-09-18T21:14:11.195Z,9.60
2022-09-18T21:16:43.132Z,9.60
2022-09-18T21:19:12.959Z,9.60
2022-09-18T21:21:41.533Z,9.60
2022-09-18T21:24:09.439Z,9.50
2022-09-18T21:26:45.543Z,9.40
2022-09-18T21:29:20.963Z,9.30
2022-09-18T21:31:59.345Z,9.30
2022-09-18T21:34:31.609Z,9.30
2022-09-18T21:37:04.182Z,9.30
2022-09-18T21:39:32.751Z,9.30
2022-09-18T21:42:01.923Z,9.30
2022-09-18T21:44:32.063Z,9.30
2022-09-18T21:47:08.351Z,9.30
2022-09-18T21:49:35.740Z,9.20
2022-09-18T21:52:08.316Z,9.10
2022-09-18T21:54:36.374Z,9.10
2022-09-18T21:57:03.851Z,9.10
2022-09-18T21:59:32.549Z,9.00
2022-09-18T22:02:00.905Z,9.00
2022-09-18T22:04:31.433Z,9.00
2022-09-18T22:07:01.716Z,9.00
2022-09-18T22:09:34.786Z,9.00
2022-09-18T22:12:02.931Z,8.90
2022-09-18T22:14:32.587Z,8.90
2022-09-18T22:17:08.554Z,8.90
2022-09-18T22:19:40.556Z,8.90
2022-09-18T22:22:08.855Z,8.80
2022-09-18T22:24:36.095Z,8.80
2022-09-18T22:27:08.793Z,8.80
2022-09-18T22:29:37.845Z,8.80
2022-09-18T22:32:06.069Z,8.80
2022-09-18T22:34:37.263Z,8.80
2022-09-18T22:37:04.926Z,8.80
2022-09-18T22:39:32.250Z,8.70
2022-09-18T22:41:59.442Z,8.70
2022-09-18T22:44:26.851Z,8.70
2022-09-18T22:46:54.931Z,8.80
2022-09-18T22:49:23.653Z,8.70
2022-09-18T22:51:51.972Z,8.80
2022-09-18T22:54:25.032Z,8.80
2022-09-18T22:56:53.797Z,8.80
2022-09-18T22:59:24.861Z,8.80
2022-09-18T23:02:12.241Z,8.90
2022-09-18T23:04:40.615Z,8.80
2022-09-18T23:07:07.941Z,8.80
2022-09-18T23:09:35.324Z,8.90
2022-09-18T23:12:02.932Z,8.80
2022-09-18T23:14:31.836Z,8.80
2022-09-18T23:17:00.402Z,8.80
2022-09-18T23:19:31.587Z,8.70
2022-09-18T23:21:59.029Z,8.80
2022-09-18T23:24:27.394Z,8.80
2022-09-18T23:26:58.033Z,8.80
2022-09-18T23:29:26.716Z,8.80
2022-09-18T23:31:57.695Z,8.80
2022-09-18T23:34:31.680Z,8.80
2022-09-18T23:37:00.235Z,8.80
2022-09-18T23:39:37.317Z,8.80
2022-09-18T23:42:06.190Z,8.70
2022-09-18T23:44:33.647Z,8.70
2022-09-18T23:47:01.523Z,8.70
2022-09-18T23:49:30.049Z,8.70
2022-09-18T23:51:57.916Z,8.70
2022-09-18T23:54:28.235Z,8.60
2022-09-18T23:56:55.911Z,8.70
2022-09-18T23:59:25.054Z,8.60
